Time;durP1;ratioP1;P1;durP2;ratioP2;P2;SDS_P1;SDS_P2;PMS_P1;PMS_P2;Temp;Humidity;BMP_temperature;BMP_pressure;BME280_temperature;BME280_humidity;BME280_pressure;Samples;Min_cycle;Max_cycle;Signal;HPM_P1;HPM_P2
2021/11/01 00:01:05;;;;;;;27.50;23.43;;;9.00;70.80;;;7.76;78.71;96666.13;5098030;28;20464;-72
2021/11/01 00:03:33;;;;;;;25.93;22.13;;;9.00;70.90;;;7.69;78.89;96660.84;5090919;28;20478;-72
2021/11/01 00:05:59;;;;;;;28.50;23.83;;;9.00;71.10;;;7.75;78.88;96667.19;5091170;28;20461;-75
2021/11/01 00:08:27;;;;;;;27.67;23.70;;;9.00;71.30;;;7.74;79.03;96666.38;5088830;28;20552;-72
2021/11/01 00:10:54;;;;;;;29.20;24.33;;;9.00;71.40;;;7.80;78.76;96675.34;5093880;28;20545;-72
2021/11/01 00:13:22;;;;;;;26.93;22.80;;;9.00;71.30;;;7.69;79.31;96670.78;5088790;28;20456;-72
2021/11/01 00:15:50;;;;;;;26.47;23.53;;;8.90;71.40;;;7.72;79.53;96675.72;5089221;28;20468;-72
2021/11/01 00:18:18;;;;;;;28.00;24.10;;;8.90;71.70;;;7.68;79.62;96669.97;5091143;28;20482;-75
2021/11/01 00:20:45;;;;;;;29.07;25.47;;;8.90;71.80;;;7.54;79.67;96645.16;5090382;28;20467;-71
2021/11/01 00:23:12;;;;;;;29.03;23.50;;;8.90;71.90;;;7.65;79.67;96665.84;5087254;28;20529;-71
2021/11/01 00:25:39;;;;;;;29.60;25.17;;;8.90;72.20;;;7.66;80.25;96664.00;5104538;27;20817;-70
2021/11/01 00:28:08;;;;;;;27.67;23.67;;;8.90;72.20;;;7.66;80.21;96661.31;5090349;28;20483;-73
2021/11/01 00:30:36;;;;;;;31.97;24.50;;;8.80;72.70;;;7.60;80.37;96667.63;5088763;28;20460;-71
2021/11/01 00:33:04;;;;;;;29.60;24.50;;;8.80;72.50;;;7.62;80.41;96660.13;5107261;27;20547;-70
2021/11/01 00:35:31;;;;;;;32.67;23.63;;;8.80;72.50;;;7.57;80.50;96663.50;5089883;28;20923;-71
2021/11/01 00:37:58;;;;;;;30.33;26.00;;;8.80;72.70;;;7.63;80.42;96662.56;5091297;28;20487;-71
2021/11/01 00:40:25;;;;;;;28.27;23.73;;;8.80;72.90;;;7.55;80.61;96659.41;5086620;28;20488;-75
2021/11/01 00:42:52;;;;;;;29.83;24.43;;;8.80;73.40;;;7.50;81.25;96657.41;5090123;28;20623;-71
2021/11/01 00:45:19;;;;;;;30.07;25.27;;;8.70;73.40;;;7.45;81.47;96655.41;5093847;28;20543;-71
2021/11/01 00:47:47;;;;;;;28.67;25.60;;;8.70;73.80;;;7.37;81.68;96659.25;5106768;28;21034;-71
2021/11/01 00:50:15;;;;;;;31.87;25.57;;;8.70;73.90;;;7.34;82.37;96648.94;5089070;28;20506;-71
2021/11/01 00:52:42;;;;;;;30.77;24.80;;;8.60;74.50;;;7.39;82.30;96647.44;5091545;28;20471;-71
2021/11/01 00:55:18;;;;;;;34.27;26.23;;;8.60;74.90;;;7.34;nan;96648.13;5088333;28;20548;-73
2021/11/01 00:57:45;;;;;;;32.20;25.03;;;8.60;75.00;;;7.28;82.81;96639.09;5092888;28;20481;-73
2021/11/01 01:00:14;;;;;;;29.70;25.30;;;8.50;75.30;;;7.16;83.30;96646.31;5090242;28;20529;-72
2021/11/01 01:02:41;;;;;;;32.03;26.90;;;8.40;75.70;;;6.98;84.05;96642.59;5094233;28;20985;-72
2021/11/01 01:05:09;;;;;;;32.50;25.63;;;8.30;76.80;;;7.09;84.12;96641.84;5089587;28;20485;-70
2021/11/01 01:07:37;;;;;;;34.00;26.80;;;8.30;77.40;;;7.25;83.95;96646.81;5091366;28;20942;-72
2021/11/01 01:10:05;;;;;;;29.57;25.37;;;8.30;77.90;;;7.40;83.27;96646.41;5089604;28;20464;-72
2021/11/01 01:12:32;;;;;;;29.47;25.43;;;8.50;77.50;;;7.32;83.49;96658.28;5088039;28;20456;-70
2021/11/01 01:15:03;;;;;;;32.50;25.50;;;8.50;77.10;;;7.28;83.49;96649.84;5088641;28;20441;-70
2021/11/01 01:17:31;;;;;;;29.87;25.00;;;8.50;77.40;;;7.23;84.12;96657.78;5092516;28;20502;-71
2021/11/01 01:20:04;;;;;;;34.40;27.37;;;8.40;77.90;;;7.12;83.57;96618.25;5087215;28;20534;-71
2021/11/01 01:22:34;;;;;;;29.13;24.90;;;8.50;77.90;;;7.29;83.43;96646.13;5086802;28;20493;-71
2021/11/01 01:25:14;;;;;;;31.80;25.80;;;8.40;77.80;;;6.96;85.02;96642.00;5092081;28;20962;-71
2021/11/01 01:27:41;;;;;;;33.20;27.23;;;8.30;78.60;;;7.15;84.68;96640.13;5091228;28;20522;-70
2021/11/01 01:30:10;;;;;;;30.47;24.90;;;8.30;79.10;;;7.17;84.61;96637.19;5088787;28;20456;-70
2021/11/01 01:32:38;;;;;;;33.30;25.40;;;8.40;78.90;;;7.10;85.08;96642.66;5091602;28;20504;-71
2021/11/01 01:35:06;;;;;;;30.20;26.07;;;8.30;78.90;;;7.04;85.55;96636.31;5087608;28;20544;-73
2021/11/01 01:37:35;;;;;;;34.03;26.93;;;8.20;79.60;;;7.05;85.27;96635.28;5087926;28;20465;-71
2021/11/01 01:40:02;;;;;;;30.80;26.10;;;8.30;79.50;;;7.08;84.68;96625.94;5104646;28;20490;-71
2021/11/01 01:42:29;;;;;;;34.97;25.77;;;8.30;79.50;;;6.92;85.63;96613.97;5067248;28;20464;-72
2021/11/01 01:44:56;;;;;;;33.00;27.00;;;8.20;80.00;;;6.89;86.03;96625.16;5087232;28;20891;-72
2021/11/01 01:47:23;;;;;;;31.00;26.47;;;8.10;80.10;;;6.97;85.58;96619.47;5090907;28;20796;-72
2021/11/01 01:49:50;;;;;;;33.00;27.30;;;8.20;80.80;;;6.74;86.63;96629.03;5084229;28;20467;-73
2021/11/01 01:52:17;;;;;;;34.23;27.03;;;8.10;80.90;;;6.77;87.20;96635.84;5088984;28;20468;-72
2021/11/01 01:54:46;;;;;;;35.07;26.23;;;7.90;81.90;;;6.76;86.34;96637.72;5085099;28;20478;-75
2021/11/01 01:57:13;;;;;;;36.33;28.60;;;8.00;81.60;;;6.55;87.49;96627.41;5087284;28;20451;-72
2021/11/01 01:59:42;;;;;;;32.20;26.80;;;7.90;82.50;;;6.62;87.31;96631.66;5086759;28;20464;-72
2021/11/01 02:02:10;;;;;;;33.17;27.20;;;7.80;82.60;;;6.70;87.29;96635.91;5106179;27;20456;-72
2021/11/01 02:04:37;;;;;;;34.87;26.37;;;7.90;83.30;;;6.86;86.90;96644.41;5085234;28;20487;-73
2021/11/01 02:07:17;;;;;;;34.50;27.60;;;8.00;83.00;;;6.84;86.58;96633.06;5088977;28;20484;-73
2021/11/01 02:09:58;;;;;;;31.73;26.60;;;8.00;82.60;;;6.97;85.98;96622.16;5083074;28;20533;-73
2021/11/01 02:12:33;;;;;;;32.17;26.63;;;8.10;82.50;;;6.98;85.93;96620.31;5088545;28;20452;-73
2021/11/01 02:15:08;;;;;;;33.57;27.20;;;8.10;82.20;;;6.95;86.39;96613.53;5088045;28;21004;-73
2021/11/01 02:17:37;;;;;;;34.50;27.13;;;8.10;82.30;;;6.89;86.74;96611.72;5089198;28;20455;-73
2021/11/01 02:20:09;;;;;;;35.67;29.50;;;8.10;82.40;;;6.99;86.56;96597.78;5092241;28;20514;-73
2021/11/01 02:22:46;;;;;;;32.87;28.50;;;8.10;82.40;;;6.82;87.38;96589.53;5091786;28;20469;-72
2021/11/01 02:25:30;;;;;;;35.80;29.10;;;8.10;82.70;;;6.92;87.54;96608.63;5107784;28;20509;-72
2021/11/01 02:27:57;;;;;;;37.23;27.70;;;8.10;83.10;;;6.99;87.27;96609.34;5091440;28;20474;-72
2021/11/01 02:30:24;;;;;;;38.37;28.53;;;8.10;83.30;;;7.13;86.31;96603.78;5092885;28;21028;-71
2021/11/01 02:32:52;;;;;;;34.73;27.43;;;8.30;82.40;;;7.33;85.58;96590.06;5091005;28;20540;-72
2021/11/01 02:35:20;;;;;;;37.83;28.60;;;8.50;81.50;;;7.36;85.10;96593.13;5090357;28;20827;-70
2021/11/01 02:37:47;;;;;;;33.00;26.73;;;8.60;80.90;;;7.42;84.45;96591.34;5101997;28;20516;-72
2021/11/01 02:40:14;;;;;;;34.93;29.00;;;8.70;80.50;;;7.55;83.69;96594.91;5091971;28;21006;-70
2021/11/01 02:42:42;;;;;;;35.60;27.63;;;8.70;80.00;;;7.63;83.84;96595.38;5093885;28;20495;-71
2021/11/01 02:45:13;;;;;;;34.43;29.53;;;8.80;79.70;;;7.58;83.63;96583.69;5109347;28;20551;-71
2021/11/01 02:47:41;;;;;;;30.93;27.00;;;8.90;79.50;;;7.61;83.64;96588.63;5092080;28;20448;-72
2021/11/01 02:50:11;;;;;;;32.73;27.50;;;8.90;79.20;;;7.70;83.37;96599.84;5093997;28;20516;-71
2021/11/01 02:52:39;;;;;;;34.10;28.43;;;8.90;79.10;;;7.70;83.22;96583.72;5089024;28;21030;-73
2021/11/01 02:55:09;;;;;;;34.93;28.03;;;8.90;78.90;;;7.71;83.32;96578.09;5090926;28;20529;-72
2021/11/01 02:57:36;;;;;;;33.03;28.80;;;9.00;78.70;;;7.67;83.27;96581.50;5085893;28;20458;-71
2021/11/01 03:00:07;;;;;;;32.50;27.70;;;8.90;78.90;;;7.59;83.35;96575.41;5090275;28;20545;-73
2021/11/01 03:02:35;;;;;;;34.20;29.03;;;8.90;79.00;;;7.59;83.89;96583.47;5086797;28;20476;-72
2021/11/01 03:05:03;;;;;;;36.37;28.93;;;8.80;79.30;;;7.45;84.03;96574.81;5092068;28;20456;-72
2021/11/01 03:07:31;;;;;;;34.33;27.60;;;8.70;79.40;;;7.39;84.55;96580.28;5089374;28;20445;-71
2021/11/01 03:09:59;;;;;;;33.57;27.90;;;8.70;79.80;;;7.44;84.80;96583.91;5086865;28;20832;-72
2021/11/01 03:12:27;;;;;;;32.40;27.07;;;8.60;80.20;;;7.37;84.45;96567.06;5087136;28;20497;-72
2021/11/01 03:15:03;;;;;;;35.37;29.63;;;8.70;80.10;;;7.46;84.63;96589.03;5090251;28;20488;-73
2021/11/01 03:17:46;;;;;;;31.63;27.20;;;8.60;80.30;;;7.49;84.43;96597.47;5088688;28;20455;-71
2021/11/01 03:20:18;;;;;;;33.77;27.73;;;8.60;80.60;;;7.46;84.24;96595.25;5090124;28;20839;-72
2021/11/01 03:22:49;;;;;;;33.80;28.70;;;8.60;80.20;;;7.28;85.65;96604.19;5085600;28;20456;-72
2021/11/01 03:25:30;;;;;;;34.40;29.17;;;8.50;81.00;;;7.17;85.85;96596.91;5089050;28;21312;-73
2021/11/01 03:28:01;;;;;;;31.43;26.90;;;8.40;81.80;;;7.47;84.51;96604.13;5090421;28;20516;-71
2021/11/01 03:30:29;;;;;;;36.90;29.63;;;8.50;81.70;;;7.51;84.76;96591.88;5087971;28;20470;-72
2021/11/01 03:32:59;;;;;;;36.00;28.30;;;8.70;81.10;;;7.45;84.76;96604.38;5085729;28;20463;-71
2021/11/01 03:35:28;;;;;;;35.73;28.00;;;8.70;81.10;;;7.46;85.18;96607.84;5089326;28;20572;-73
2021/11/01 03:37:57;;;;;;;33.80;28.03;;;8.70;80.80;;;7.12;85.28;96553.81;5091783;28;20455;-72
2021/11/01 03:40:27;;;;;;;29.70;26.47;;;8.70;81.00;;;7.44;85.30;96607.25;5084702;28;20473;-72
2021/11/01 03:42:56;;;;;;;35.57;28.97;;;8.70;80.80;;;7.54;85.23;96612.91;5086597;28;21015;-72
2021/11/01 03:45:25;;;;;;;34.83;29.87;;;8.70;81.10;;;7.49;85.10;96624.34;5089899;28;20913;-73
2021/11/01 03:47:55;;;;;;;33.43;27.80;;;8.70;81.10;;;7.40;85.61;96631.09;5090653;28;20524;-72
2021/11/01 03:50:31;;;;;;;33.67;27.87;;;8.60;81.50;;;7.53;85.18;96627.41;5091496;28;20456;-73
2021/11/01 03:52:59;;;;;;;31.57;27.77;;;8.70;81.40;;;7.47;85.50;96631.00;5087144;28;21369;-72
2021/11/01 03:55:29;;;;;;;31.73;27.77;;;8.70;81.40;;;7.45;85.71;96628.53;5089875;28;20517;-73
2021/11/01 03:57:56;;;;;;;34.80;27.17;;;8.70;81.60;;;7.58;85.23;96632.06;5089890;28;20854;-73
2021/11/01 04:00:26;;;;;;;32.97;28.57;;;8.70;81.40;;;7.57;85.18;96636.63;5103906;28;20998;-76
2021/11/01 04:02:55;;;;;;;34.40;28.47;;;8.70;81.20;;;7.44;85.50;96637.66;5088440;28;20448;-72
2021/11/01 04:05:25;;;;;;;33.97;29.63;;;8.70;81.40;;;7.36;86.59;96636.13;5086300;28;20440;-73
2021/11/01 04:07:52;;;;;;;39.17;29.43;;;8.60;82.10;;;7.68;84.74;96644.97;5085351;28;20521;-72
2021/11/01 04:10:19;;;;;;;35.60;28.97;;;8.80;81.10;;;7.51;85.52;96638.38;5083412;28;20486;-72
2021/11/01 04:12:47;;;;;;;41.17;28.67;;;8.70;81.10;;;7.72;84.04;96641.56;5085477;28;20555;-73
2021/11/01 04:15:18;;;;;;;36.33;29.60;;;8.90;80.50;;;7.65;84.71;96655.09;5087798;28;20792;-73
2021/11/01 04:17:46;;;;;;;33.97;28.20;;;8.80;81.00;;;7.76;84.24;96655.38;5089112;28;20466;-72
2021/11/01 04:20:32;;;;;;;39.50;29.70;;;8.90;80.30;;;7.72;83.80;96655.00;5086374;28;20456;-73
2021/11/01 04:23:04;;;;;;;32.60;27.70;;;9.00;80.60;;;7.83;84.15;96661.47;5084990;28;20452;-72
2021/11/01 04:25:32;;;;;;;32.73;27.90;;;9.00;80.50;;;7.85;84.38;96670.13;5082922;28;20447;-72
2021/11/01 04:28:00;;;;;;;34.37;27.87;;;9.00;80.40;;;7.71;84.61;96674.06;5077049;28;20464;-73
2021/11/01 04:30:31;;;;;;;33.67;27.97;;;9.00;80.50;;;7.89;84.08;96676.69;5087563;28;20465;-73
2021/11/01 04:33:02;;;;;;;34.73;29.27;;;9.00;80.40;;;7.81;84.31;96674.34;5087489;28;20933;-73
2021/11/01 04:35:34;;;;;;;34.73;28.40;;;9.10;80.30;;;7.84;84.17;96671.19;5094395;28;20499;-72
2021/11/01 04:38:06;;;;;;;32.77;27.53;;;9.10;80.10;;;7.88;84.67;96671.50;5072279;28;20467;-70
2021/11/01 04:40:47;;;;;;;37.07;29.10;;;9.10;80.40;;;8.15;84.06;96676.47;5090297;28;20459;-72
2021/11/01 04:43:45;;;;;;;30.73;26.90;;;9.20;80.80;;;8.14;83.60;96672.16;5088969;28;20464;-73
2021/11/01 04:54:28;;;;;;;33.30;28.10;;;9.40;80.60;;;8.34;83.21;96679.88;5087716;28;20539;-73
2021/11/01 04:56:55;;;;;;;34.23;28.40;;;9.50;79.90;;;8.39;84.36;96698.03;5089213;28;20443;-72
2021/11/01 04:59:23;;;;;;;36.53;30.03;;;9.50;80.70;;;8.31;85.21;96693.81;5088436;28;20456;-73
2021/11/01 05:01:52;;;;;;;35.33;29.50;;;9.50;81.00;;;8.33;84.98;96670.16;5088154;28;20468;-73
2021/11/01 05:04:23;;;;;;;35.07;28.77;;;9.50;81.70;;;8.52;84.36;96689.75;5087779;28;20483;-72
2021/11/01 05:06:52;;;;;;;37.00;29.97;;;9.70;81.10;;;8.42;86.00;96690.31;5087039;28;20512;-71
2021/11/01 05:09:24;;;;;;;34.63;29.90;;;9.60;82.10;;;8.25;88.86;96700.09;5085138;28;20477;-71
2021/11/01 05:12:01;;;;;;;39.73;32.00;;;9.50;84.80;;;8.20;90.80;96707.00;5085920;28;20452;-72
2021/11/01 05:14:34;;;;;;;34.80;29.70;;;9.40;87.20;;;8.00;91.67;96703.84;5088851;28;20468;-72
2021/11/01 05:17:14;;;;;;;40.37;31.70;;;9.30;88.90;;;7.94;92.04;96713.63;5088320;28;20464;-72
2021/11/01 05:19:47;;;;;;;41.90;32.90;;;9.20;90.10;;;7.81;93.30;96717.38;5084933;28;20456;-72
2021/11/01 05:22:20;;;;;;;36.33;30.57;;;9.10;90.50;;;7.86;92.76;96717.47;5086419;28;21017;-72
2021/11/01 05:24:51;;;;;;;40.50;32.10;;;9.10;90.80;;;7.47;93.25;96679.34;5089389;28;20998;-72
2021/11/01 05:30:08;;;;;;;41.10;32.63;;;9.10;91.60;;;8.03;93.56;96741.03;5081502;28;20467;-73
2021/11/01 05:32:38;;;;;;;39.57;31.90;;;9.20;91.70;;;7.97;93.35;96747.34;5092801;28;20920;-73
2021/11/01 05:35:06;;;;;;;39.23;31.37;;;9.30;91.40;;;8.02;94.33;96750.16;5091256;28;20460;-72
2021/11/01 05:37:33;;;;;;;38.10;31.50;;;9.20;92.20;;;8.09;93.79;96756.22;5086320;28;20479;-72
2021/11/01 05:40:01;;;;;;;36.50;29.63;;;9.20;92.40;;;8.22;93.84;96761.41;5085784;28;20459;-72
2021/11/01 05:42:29;;;;;;;38.67;31.60;;;9.30;92.60;;;8.25;93.97;96757.44;5086965;28;20556;-73
2021/11/01 05:44:57;;;;;;;37.30;30.90;;;9.40;92.70;;;8.24;94.62;96763.88;5089405;28;20557;-73
2021/11/01 05:47:24;;;;;;;39.67;30.60;;;9.40;93.00;;;8.19;94.74;96763.75;5080051;28;20456;-72
2021/11/01 05:49:51;;;;;;;43.00;31.70;;;9.40;93.00;;;8.06;95.81;96757.53;5101645;28;20478;-71
2021/11/01 05:52:23;;;;;;;38.07;30.50;;;9.30;93.40;;;8.08;95.85;96759.97;5083253;28;20479;-71
2021/11/01 05:54:54;;;;;;;37.60;31.13;;;9.30;94.10;;;8.25;95.80;96770.06;5083294;28;20469;-72
2021/11/01 05:57:29;;;;;;;38.57;31.50;;;9.40;94.40;;;8.09;96.13;96777.75;5085401;28;20497;-76
2021/11/01 06:00:15;;;;;;;39.17;30.73;;;9.40;94.50;;;8.19;96.72;96780.72;5084766;28;20464;-71
2021/11/01 06:02:59;;;;;;;39.87;33.30;;;9.40;95.50;;;8.22;96.63;96788.31;5081929;28;20486;-72
2021/11/01 06:08:43;;;;;;;39.87;31.60;;;9.30;97.20;;;8.12;99.35;96798.00;5061525;28;20957;-72
2021/11/01 06:13:57;;;;;;;43.60;32.97;;;9.50;98.20;;;8.28;98.46;96802.72;5082806;28;20847;-72
2021/11/01 06:16:26;;;;;;;40.77;32.80;;;9.50;97.40;;;8.20;98.57;96801.19;5118428;28;20510;-74
2021/11/01 06:18:53;;;;;;;44.03;33.40;;;9.40;98.20;;;8.33;99.04;96815.50;5086058;28;20452;-74
2021/11/01 06:21:21;;;;;;;45.03;32.80;;;9.50;98.00;;;8.27;99.42;96813.75;5094968;28;20519;-73
2021/11/01 06:23:52;;;;;;;42.07;33.60;;;9.40;99.40;;;8.28;98.67;96821.56;5097804;28;21874;-73
2021/11/01 06:26:20;;;;;;;45.00;33.53;;;9.40;98.50;;;8.14;98.64;96812.88;5086362;28;21093;-75
2021/11/01 06:28:50;;;;;;;44.07;34.60;;;9.30;97.60;;;8.17;98.87;96808.88;5077019;28;20829;-73
2021/11/01 06:31:21;;;;;;;40.70;33.23;;;9.30;98.50;;;8.27;98.82;96829.88;5099922;28;20479;-73
2021/11/01 06:34:00;;;;;;;42.20;33.40;;;9.40;98.80;;;8.10;99.38;96835.09;5081458;28;20935;-72
2021/11/01 06:39:25;;;;;;;46.77;34.77;;;9.20;99.90;;;8.22;99.27;96835.94;5083236;28;20462;-73
2021/11/01 06:44:53;;;;;;;36.23;30.90;;;9.40;99.90;;;8.42;99.18;96841.03;5083849;28;20838;-71
2021/11/01 06:50:11;;;;;;;40.63;32.80;;;9.60;99.10;;;8.57;99.31;96850.56;5084137;28;20457;-72
2021/11/01 06:58:22;;;;;;;39.90;31.87;;;9.70;99.90;;;8.47;99.56;96873.47;5083493;28;20541;-72
2021/11/01 07:14:45;;;;;;;40.60;32.10;;;10.10;98.30;;;8.93;99.11;96897.22;5088012;28;20839;-73
2021/11/01 07:17:15;;;;;;;35.60;30.70;;;10.10;98.30;;;8.90;99.05;96895.81;5087460;28;21014;-72
2021/11/01 07:20:10;;;;;;;39.83;30.23;;;10.10;98.00;;;8.72;100.00;96891.34;5085937;28;20463;-78
2021/11/01 07:26:08;;;;;;;40.60;31.93;;;10.00;99.90;;;8.74;99.09;96902.72;5079965;28;20472;-73
2021/11/01 08:26:41;;;;;;;25.03;21.20;;;11.80;91.40;;;10.54;91.17;96869.03;5088578;28;20461;-73
2021/11/01 08:29:24;;;;;;;22.67;20.30;;;11.80;90.20;;;10.37;92.94;96878.94;5089428;28;20464;-71
2021/11/01 08:35:14;;;;;;;18.60;14.87;;;11.80;89.80;;;10.79;89.05;96875.09;5081938;28;20444;-70
2021/11/01 08:41:04;;;;;;;7.70;6.73;;;11.90;88.90;;;10.85;86.09;96879.53;5071644;28;20517;-70
2021/11/01 08:49:35;;;;;;;9.40;6.97;;;12.00;84.70;;;10.95;85.65;96878.88;5097059;28;20457;-74
2021/11/01 09:01:12;;;;;;;6.93;5.90;;;12.00;84.90;;;10.91;86.53;96884.75;5089597;28;20818;-72
2021/11/01 09:03:33;;;;;;;5.57;5.07;;;11.70;83.60;;;10.62;83.73;96889.41;5085583;28;20485;-72
2021/11/01 09:35:44;;;;;;;5.17;4.30;;;11.80;83.20;;;10.74;84.40;96897.44;5082434;28;20965;-71
2021/11/01 09:36:24;;;;;;;4.13;3.73;;;11.70;83.50;;;10.83;83.91;96914.06;5100710;28;20463;-70
2021/11/01 09:39:04;;;;;;;5.60;2.80;;;11.80;82.70;;;10.79;82.18;96902.94;5082366;28;20792;-70
2021/11/01 09:41:33;;;;;;;3.60;3.10;;;11.90;80.80;;;10.75;82.74;96907.19;5083382;28;20462;-70
2021/11/01 09:44:08;;;;;;;4.40;3.40;;;11.90;81.60;;;10.64;82.65;96906.19;5081686;28;20542;-70
2021/11/01 09:46:35;;;;;;;4.30;3.70;;;11.80;81.00;;;10.64;82.71;96906.19;5117494;27;20456;-70
2021/11/01 09:49:15;;;;;;;5.17;4.30;;;11.80;81.00;;;10.74;83.71;96917.19;5084719;28;20478;-70
2021/11/01 09:51:47;;;;;;;5.70;3.80;;;11.80;82.00;;;10.76;83.40;96919.63;5079540;28;20487;-71
2021/11/01 09:54:22;;;;;;;5.23;3.53;;;11.80;81.90;;;10.88;83.94;96916.88;5084458;28;20533;-69
2021/11/01 09:57:04;;;;;;;6.03;4.60;;;11.90;82.60;;;10.82;84.00;96907.03;5119850;27;20448;-70
2021/11/01 09:59:35;;;;;;;4.27;3.27;;;11.90;82.70;;;10.96;83.32;96913.75;5083660;28;21034;-69
2021/11/01 10:02:03;;;;;;;5.10;4.50;;;11.90;82.30;;;10.91;84.12;96916.38;5084277;28;20455;-70
2021/11/01 10:04:32;;;;;;;6.23;4.10;;;12.00;82.70;;;10.89;84.14;96923.91;5086737;28;20588;-71
2021/11/01 10:07:21;;;;;;;5.30;4.80;;;11.90;82.80;;;10.90;83.74;96906.63;5086798;28;20943;-72
2021/11/01 10:09:54;;;;;;;6.73;4.80;;;11.90;82.60;;;10.58;86.10;96917.97;5098389;28;20548;-70
2021/11/01 10:12:26;;;;;;;5.97;5.13;;;11.80;83.40;;;10.57;86.71;96916.34;5086564;28;20472;-71
2021/11/01 10:14:56;;;;;;;5.63;5.10;;;11.60;84.40;;;10.94;86.44;96918.59;5085535;28;20447;-70
2021/11/01 10:17:35;;;;;;;9.43;5.23;;;11.80;85.10;;;10.83;86.29;96927.56;5102368;28;20458;-71
2021/11/01 10:20:08;;;;;;;6.50;5.17;;;11.90;84.50;;;10.66;87.39;96931.06;5081157;28;20465;-71
2021/11/01 10:22:40;;;;;;;4.77;3.60;;;11.80;85.50;;;10.79;85.62;96934.53;5100790;28;20499;-70
2021/11/01 10:25:16;;;;;;;10.70;4.07;;;11.80;84.10;;;10.43;86.47;96932.00;5085370;28;20482;-69
2021/11/01 10:27:46;;;;;;;5.30;3.77;;;11.70;83.60;;;10.43;86.80;96932.84;5085277;28;20455;-69
2021/11/01 10:30:15;;;;;;;6.53;3.87;;;11.60;83.70;;;10.51;86.11;96923.53;5083107;28;20483;-70
2021/11/01 10:32:46;;;;;;;6.43;3.93;;;11.60;84.00;;;10.43;84.88;96932.84;5086729;28;21066;-71
2021/11/01 10:35:19;;;;;;;4.13;3.10;;;11.60;83.30;;;10.19;87.04;96932.88;5082959;28;20543;-70
2021/11/01 10:38:21;;;;;;;5.10;3.43;;;11.40;83.80;;;9.82;88.49;96922.41;5085807;28;20497;-70
2021/11/01 10:40:56;;;;;;;3.80;2.70;;;11.20;85.10;;;9.92;87.91;96922.59;5083383;28;20470;-70
2021/11/01 10:43:41;;;;;;;5.27;2.93;;;11.10;85.10;;;9.89;88.34;96917.69;5089109;28;20459;-69
2021/11/01 10:57:42;;;;;;;3.63;1.90;;;11.10;83.40;;;9.63;87.57;96925.25;5084052;28;21084;-70
2021/11/01 11:11:33;;;;;;;3.70;1.50;;;11.00;84.20;;;9.98;86.73;96906.53;5088259;28;20460;-69
2021/11/01 11:14:09;;;;;;;3.40;1.97;;;11.00;84.60;;;9.73;87.18;96902.25;5088829;28;20818;-69
2021/11/01 11:19:39;;;;;;;3.90;2.10;;;10.90;85.40;;;9.47;88.93;96896.28;5082513;28;20513;-70
2021/11/01 11:22:27;;;;;;;7.93;2.23;;;10.70;85.60;;;9.52;89.30;96876.72;5105173;28;20455;-70
2021/11/01 11:25:07;;;;;;;4.33;2.00;;;10.70;86.70;;;9.63;89.44;96871.31;5115688;27;20986;-71
2021/11/01 11:27:55;;;;;;;3.97;1.97;;;10.70;86.80;;;10.16;87.36;96878.53;5088615;28;20955;-70
2021/11/01 11:30:45;;;;;;;4.43;1.67;;;11.00;86.90;;;10.06;86.91;96884.56;5085472;28;20990;-70
2021/11/01 11:33:32;;;;;;;3.70;1.93;;;11.20;84.90;;;10.26;86.26;96880.63;5084508;28;20475;-70
2021/11/01 11:47:25;;;;;;;5.53;2.00;;;10.80;87.30;;;9.64;89.95;96888.31;5122105;27;20452;-70
2021/11/01 11:49:54;;;;;;;3.50;1.80;;;10.80;88.10;;;9.54;90.89;96886.22;5086179;28;20848;-70
2021/11/01 11:52:24;;;;;;;3.67;2.07;;;10.80;88.70;;;9.49;90.63;96888.81;5085775;28;20816;-70
2021/11/01 11:54:55;;;;;;;3.23;1.80;;;10.80;88.40;;;9.45;90.51;96895.72;5086238;28;20472;-71
2021/11/01 11:57:26;;;;;;;5.13;3.07;;;10.70;88.70;;;9.55;90.56;96895.94;5085399;28;20485;-70
2021/11/01 11:59:56;;;;;;;3.60;2.47;;;10.70;88.90;;;9.55;89.97;96900.50;5084898;28;20860;-69
2021/11/01 12:02:35;;;;;;;7.90;2.60;;;10.70;88.50;;;9.50;89.99;96907.44;5087515;28;20514;-70
2021/11/01 12:05:11;;;;;;;4.47;2.13;;;10.60;88.20;;;9.65;88.91;96903.44;5109415;27;20563;-70
2021/11/01 12:07:46;;;;;;;4.63;2.47;;;10.70;88.20;;;9.42;90.54;96917.75;5089157;28;20465;-70
2021/11/01 12:10:31;;;;;;;6.00;2.10;;;10.70;88.40;;;9.55;90.91;96922.91;5085508;28;20484;-69
2021/11/01 12:13:07;;;;;;;2.87;2.13;;;10.70;89.70;;;9.16;92.23;96914.47;5088341;28;20467;-70
2021/11/01 12:18:28;;;;;;;3.77;2.80;;;10.40;91.40;;;9.57;91.71;96920.78;5079723;28;20467;-72
2021/11/01 12:20:59;;;;;;;5.33;2.70;;;10.60;90.70;;;9.46;91.65;96913.53;5090361;28;20464;-69
2021/11/01 12:23:37;;;;;;;3.50;2.70;;;10.60;90.60;;;9.46;91.70;96902.75;5090190;28;20984;-70
2021/11/01 12:26:15;;;;;;;3.77;2.13;;;10.60;90.50;;;9.23;91.88;96907.09;5090650;28;20486;-70
2021/11/01 12:28:45;;;;;;;3.53;2.23;;;10.50;90.10;;;9.33;92.30;96896.56;5086097;28;20853;-70
2021/11/01 12:31:14;;;;;;;5.37;2.30;;;10.50;90.50;;;9.34;92.62;96900.91;5088792;28;20488;-69
2021/11/01 12:33:49;;;;;;;2.70;2.43;;;10.50;91.10;;;9.43;91.83;96893.28;5087435;28;20482;-69
2021/11/01 12:36:16;;;;;;;5.80;2.80;;;10.60;90.60;;;9.49;91.54;96897.72;5085524;28;20463;-69
2021/11/01 12:38:51;;;;;;;4.90;2.87;;;10.60;90.50;;;9.56;90.81;96905.69;5085889;28;20527;-70
2021/11/01 12:41:29;;;;;;;3.50;2.40;;;10.60;90.10;;;9.40;91.44;96898.31;5087745;28;20959;-71
2021/11/01 12:58:18;;;;;;;5.60;2.40;;;10.60;90.50;;;9.13;91.25;96823.31;5117716;27;20444;-71
2021/11/01 13:00:46;;;;;;;3.80;2.80;;;10.60;90.50;;;9.57;91.53;96857.97;5085964;28;20475;-70
2021/11/01 13:03:17;;;;;;;3.97;2.40;;;10.60;90.90;;;9.20;93.55;96859.06;5088036;28;20491;-70
2021/11/01 13:05:54;;;;;;;4.97;3.03;;;10.50;91.40;;;9.10;94.01;96848.03;5087561;28;20486;-70
2021/11/01 13:08:27;;;;;;;4.10;2.70;;;10.30;92.30;;;9.19;94.93;96846.66;5084163;28;20448;-70
2021/11/01 13:11:01;;;;;;;4.20;3.30;;;10.40;92.70;;;9.47;92.56;96850.47;5087064;28;20448;-70
2021/11/01 13:19:09;;;;;;;7.73;5.03;;;10.60;91.80;;;9.47;93.59;96870.16;5085111;28;20497;-69
2021/11/01 13:21:45;;;;;;;6.27;3.93;;;10.60;92.10;;;9.29;94.11;96867.59;5082301;28;20465;-70
2021/11/01 13:24:12;;;;;;;3.43;3.07;;;10.60;91.70;;;9.34;93.07;96862.31;5084772;28;20486;-69
2021/11/01 13:26:56;;;;;;;3.87;2.90;;;10.50;91.80;;;9.28;93.51;96865.97;5085047;28;20472;-70
2021/11/01 13:37:45;;;;;;;3.83;3.40;;;10.70;91.50;;;9.40;92.96;96849.78;5084027;28;20746;-69
2021/11/01 13:40:15;;;;;;;4.57;3.07;;;10.60;91.50;;;9.34;94.00;96841.59;5084947;28;20645;-68
2021/11/01 13:42:55;;;;;;;5.90;2.80;;;10.60;91.70;;;9.43;93.06;96841.22;5110656;27;21028;-70
2021/11/01 13:45:24;;;;;;;3.60;2.50;;;10.60;91.30;;;9.56;92.22;96848.25;5116332;27;20475;-69
2021/11/01 13:47:54;;;;;;;6.20;3.13;;;10.70;90.80;;;9.49;92.45;96840.28;5087297;28;20466;-71
2021/11/01 13:50:26;;;;;;;5.13;2.90;;;10.60;91.30;;;9.33;94.00;96831.88;5085853;28;20551;-68
2021/11/01 13:53:01;;;;;;;3.70;3.03;;;10.60;91.60;;;9.30;93.97;96836.91;5085447;28;20479;-70
2021/11/01 13:55:42;;;;;;;3.03;2.73;;;10.50;91.90;;;9.18;94.55;96818.06;5087456;28;20917;-71
2021/11/01 13:58:23;;;;;;;4.20;3.60;;;10.50;92.40;;;9.36;94.31;96838.63;5087249;28;20456;-72
2021/11/01 14:01:06;;;;;;;4.63;3.77;;;10.50;92.50;;;9.48;93.28;96828.66;5084275;28;20447;-70
2021/11/01 14:11:58;;;;;;;3.50;3.30;;;10.70;91.10;;;9.35;93.75;96832.44;5087808;28;20903;-71
2021/11/01 14:17:46;;;;;;;8.90;4.10;;;10.50;91.70;;;9.23;93.92;96828.09;5077762;28;20457;-70
2021/11/01 14:20:41;;;;;;;3.63;3.03;;;10.40;92.20;;;9.30;92.89;96829.63;5084476;28;20537;-70
2021/11/01 14:28:46;;;;;;;2.73;2.43;;;10.30;90.10;;;8.96;92.91;96836.69;5086920;28;20467;-70
2021/11/01 14:34:36;;;;;;;2.90;2.60;;;10.10;88.90;;;8.95;90.80;96838.56;5073599;28;20498;-70
2021/11/01 15:07:51;;;;;;;3.93;3.40;;;10.10;90.60;;;8.82;93.12;96815.38;5085905;28;20480;-69
2021/11/01 15:16:13;;;;;;;4.83;3.10;;;10.00;92.30;;;8.87;92.83;96802.00;5079843;28;21050;-70
2021/11/01 15:18:51;;;;;;;8.40;3.50;;;10.00;91.30;;;8.86;93.73;96810.31;5083189;28;20460;-70
2021/11/01 15:21:28;;;;;;;5.83;3.50;;;10.00;91.80;;;8.79;93.45;96796.97;5102588;28;20962;-70